sensor_id;sensor_type;location;lat;lon;timestamp;temperature;humidity
563;DHT22;266;49.514;8.294;2024-02-21T00:01:08;8.90;99.90
563;DHT22;266;49.514;8.294;2024-02-21T00:03:36;8.90;99.90
563;DHT22;266;49.514;8.294;2024-02-21T00:06:04;8.90;99.90
563;DHT22;266;49.514;8.294;2024-02-21T00:08:32;9.00;99.90
563;DHT22;266;49.514;8.294;2024-02-21T00:11:02;9.00;99.90
563;DHT22;266;49.514;8.294;2024-02-21T00:13:30;9.00;99.90
563;DHT22;266;49.514;8.294;2024-02-21T00:15:59;9.00;99.90
563;DHT22;266;49.514;8.294;2024-02-21T00:18:27;9.10;99.90
563;DHT22;266;49.514;8.294;2024-02-21T00:20:56;9.10;99.90
563;DHT22;266;49.514;8.294;2024-02-21T00:23:24;9.10;99.90
563;DHT22;266;49.514;8.294;2024-02-21T00:25:52;9.10;99.90
563;DHT22;266;49.514;8.294;2024-02-21T00:28:22;9.20;99.90
563;DHT22;266;49.514;8.294;2024-02-21T00:30:51;9.20;99.90
563;DHT22;266;49.514;8.294;2024-02-21T00:33:19;9.30;99.90
563;DHT22;266;49.514;8.294;2024-02-21T00:35:48;9.30;99.90
563;DHT22;266;49.514;8.294;2024-02-21T00:38:16;9.20;99.90
563;DHT22;266;49.514;8.294;2024-02-21T00:40:43;9.20;99.90
563;DHT22;266;49.514;8.294;2024-02-21T00:43:11;9.20;99.90
563;DHT22;266;49.514;8.294;2024-02-21T00:45:41;9.20;99.90
563;DHT22;266;49.514;8.294;2024-02-21T00:48:09;9.10;99.90
563;DHT22;266;49.514;8.294;2024-02-21T00:50:37;9.10;99.90
563;DHT22;266;49.514;8.294;2024-02-21T00:53:05;9.10;99.90
563;DHT22;266;49.514;8.294;2024-02-21T00:55:33;9.10;99.90
563;DHT22;266;49.514;8.294;2024-02-21T00:58:01;9.10;99.90
563;DHT22;266;49.514;8.294;2024-02-21T01:00:29;9.10;99.90
563;DHT22;266;49.514;8.294;2024-02-21T01:02:59;9.20;99.90
563;DHT22;266;49.514;8.294;2024-02-21T01:05:27;9.20;99.90
563;DHT22;266;49.514;8.294;2024-02-21T01:07:55;9.20;99.90
563;DHT22;266;49.514;8.294;2024-02-21T01:10:23;9.20;99.90
563;DHT22;266;49.514;8.294;2024-02-21T01:12:52;9.00;99.90
563;DHT22;266;49.514;8.294;2024-02-21T01:15:20;8.90;99.90
563;DHT22;266;49.514;8.294;2024-02-21T01:17:47;8.80;99.90
563;DHT22;266;49.514;8.294;2024-02-21T01:20:18;8.70;99.90
563;DHT22;266;49.514;8.294;2024-02-21T01:22:46;8.60;99.90
563;DHT22;266;49.514;8.294;2024-02-21T01:25:14;8.60;99.90
563;DHT22;266;49.514;8.294;2024-02-21T01:27:42;8.60;99.90
563;DHT22;266;49.514;8.294;2024-02-21T01:30:10;8.70;99.90
563;DHT22;266;49.514;8.294;2024-02-21T01:32:38;8.70;99.90
563;DHT22;266;49.514;8.294;2024-02-21T01:35:08;8.70;99.90
563;DHT22;266;49.514;8.294;2024-02-21T01:37:37;8.70;99.90
563;DHT22;266;49.514;8.294;2024-02-21T01:40:06;8.50;99.90
563;DHT22;266;49.514;8.294;2024-02-21T01:42:38;8.60;99.90
563;DHT22;266;49.514;8.294;2024-02-21T01:45:06;8.70;99.90
563;DHT22;266;49.514;8.294;2024-02-21T01:47:35;8.80;99.90
563;DHT22;266;49.514;8.294;2024-02-21T01:50:05;8.80;99.90
563;DHT22;266;49.514;8.294;2024-02-21T01:52:34;8.90;99.90
563;DHT22;266;49.514;8.294;2024-02-21T01:55:05;9.00;99.90
563;DHT22;266;49.514;8.294;2024-02-21T01:57:34;9.10;99.90
563;DHT22;266;49.514;8.294;2024-02-21T02:00:02;9.10;99.90
563;DHT22;266;49.514;8.294;2024-02-21T02:02:30;9.10;99.90
563;DHT22;266;49.514;8.294;2024-02-21T02:04:59;9.00;99.90
563;DHT22;266;49.514;8.294;2024-02-21T02:07:28;9.00;99.90
563;DHT22;266;49.514;8.294;2024-02-21T02:09:56;8.80;99.90
563;DHT22;266;49.514;8.294;2024-02-21T02:12:25;8.70;99.90
563;DHT22;266;49.514;8.294;2024-02-21T02:14:58;8.60;99.90
563;DHT22;266;49.514;8.294;2024-02-21T02:17:26;8.50;99.90
563;DHT22;266;49.514;8.294;2024-02-21T02:19:54;8.30;99.90
563;DHT22;266;49.514;8.294;2024-02-21T02:22:27;8.20;99.90
563;DHT22;266;49.514;8.294;2024-02-21T02:24:57;8.10;99.90
563;DHT22;266;49.514;8.294;2024-02-21T02:27:25;8.20;99.90
563;DHT22;266;49.514;8.294;2024-02-21T02:29:53;8.30;99.90
563;DHT22;266;49.514;8.294;2024-02-21T02:32:21;8.40;99.90
563;DHT22;266;49.514;8.294;2024-02-21T02:34:49;8.30;99.90
563;DHT22;266;49.514;8.294;2024-02-21T02:37:17;8.20;99.90
563;DHT22;266;49.514;8.294;2024-02-21T02:39:45;8.30;99.90
563;DHT22;266;49.514;8.294;2024-02-21T02:42:15;8.20;99.90
563;DHT22;266;49.514;8.294;2024-02-21T02:44:42;8.20;99.90
563;DHT22;266;49.514;8.294;2024-02-21T02:47:10;8.10;99.90
563;DHT22;266;49.514;8.294;2024-02-21T02:49:38;8.10;99.90
563;DHT22;266;49.514;8.294;2024-02-21T02:52:06;8.10;99.90
563;DHT22;266;49.514;8.294;2024-02-21T02:54:34;8.00;99.90
563;DHT22;266;49.514;8.294;2024-02-21T02:57:02;8.00;99.90
563;DHT22;266;49.514;8.294;2024-02-21T02:59:33;8.00;99.90
563;DHT22;266;49.514;8.294;2024-02-21T03:02:01;8.00;99.90
563;DHT22;266;49.514;8.294;2024-02-21T03:04:30;8.00;99.90
563;DHT22;266;49.514;8.294;2024-02-21T03:06:59;8.00;99.90
563;DHT22;266;49.514;8.294;2024-02-21T03:09:26;8.20;99.90
563;DHT22;266;49.514;8.294;2024-02-21T03:11:55;8.20;99.90
563;DHT22;266;49.514;8.294;2024-02-21T03:14:29;8.30;99.90
563;DHT22;266;49.514;8.294;2024-02-21T03:16:59;8.20;99.90
563;DHT22;266;49.514;8.294;2024-02-21T03:19:27;8.20;99.90
563;DHT22;266;49.514;8.294;2024-02-21T03:21:55;8.20;99.90
563;DHT22;266;49.514;8.294;2024-02-21T03:24:23;8.20;99.90
563;DHT22;266;49.514;8.294;2024-02-21T03:26:51;8.10;99.90
563;DHT22;266;49.514;8.294;2024-02-21T03:29:19;8.20;99.90
563;DHT22;266;49.514;8.294;2024-02-21T03:31:47;8.10;99.90
563;DHT22;266;49.514;8.294;2024-02-21T03:34:16;8.00;99.90
563;DHT22;266;49.514;8.294;2024-02-21T03:36:44;8.00;99.90
563;DHT22;266;49.514;8.294;2024-02-21T03:39:12;8.00;99.90
563;DHT22;266;49.514;8.294;2024-02-21T03:41:40;8.00;99.90
563;DHT22;266;49.514;8.294;2024-02-21T03:44:08;7.90;99.90
563;DHT22;266;49.514;8.294;2024-02-21T03:46:36;8.00;99.90
563;DHT22;266;49.514;8.294;2024-02-21T03:49:04;8.00;99.90
563;DHT22;266;49.514;8.294;2024-02-21T03:51:33;8.00;99.90
563;DHT22;266;49.514;8.294;2024-02-21T03:54:02;8.00;99.90
563;DHT22;266;49.514;8.294;2024-02-21T03:56:29;8.00;99.90
563;DHT22;266;49.514;8.294;2024-02-21T03:58:58;8.00;99.90
563;DHT22;266;49.514;8.294;2024-02-21T04:01:26;8.00;99.90
563;DHT22;266;49.514;8.294;2024-02-21T04:03:54;8.00;99.90
563;DHT22;266;49.514;8.294;2024-02-21T04:06:22;8.00;99.90
563;DHT22;266;49.514;8.294;2024-02-21T04:08:51;8.00;99.90
563;DHT22;266;49.514;8.294;2024-02-21T04:11:19;7.90;99.90
563;DHT22;266;49.514;8.294;2024-02-21T04:13:47;7.90;99.90
563;DHT22;266;49.514;8.294;2024-02-21T04:16:17;7.90;99.90
563;DHT22;266;49.514;8.294;2024-02-21T04:18:45;7.90;99.90
563;DHT22;266;49.514;8.294;2024-02-21T04:21:14;7.90;99.90
563;DHT22;266;49.514;8.294;2024-02-21T04:23:43;7.90;99.90
563;DHT22;266;49.514;8.294;2024-02-21T04:26:12;7.90;99.90
563;DHT22;266;49.514;8.294;2024-02-21T04:28:40;7.90;99.90
563;DHT22;266;49.514;8.294;2024-02-21T04:31:08;7.90;99.90
563;DHT22;266;49.514;8.294;2024-02-21T04:33:36;7.90;99.90
563;DHT22;266;49.514;8.294;2024-02-21T04:36:04;7.80;99.90
563;DHT22;266;49.514;8.294;2024-02-21T04:38:32;7.80;99.90
563;DHT22;266;49.514;8.294;2024-02-21T04:41:00;7.80;99.90
563;DHT22;266;49.514;8.294;2024-02-21T04:43:30;7.80;99.90
563;DHT22;266;49.514;8.294;2024-02-21T04:45:58;7.80;99.90
563;DHT22;266;49.514;8.294;2024-02-21T04:48:25;7.90;99.90
563;DHT22;266;49.514;8.294;2024-02-21T04:50:54;7.80;99.90
563;DHT22;266;49.514;8.294;2024-02-21T04:53:21;7.70;99.90
563;DHT22;266;49.514;8.294;2024-02-21T04:55:49;7.70;99.90
563;DHT22;266;49.514;8.294;2024-02-21T04:58:18;7.70;99.90
563;DHT22;266;49.514;8.294;2024-02-21T05:00:47;7.70;99.90
563;DHT22;266;49.514;8.294;2024-02-21T05:03:15;7.60;99.90
563;DHT22;266;49.514;8.294;2024-02-21T05:05:43;7.60;99.90
563;DHT22;266;49.514;8.294;2024-02-21T05:08:11;7.60;99.90
563;DHT22;266;49.514;8.294;2024-02-21T05:10:39;7.60;99.90
563;DHT22;266;49.514;8.294;2024-02-21T05:13:07;7.70;99.90
563;DHT22;266;49.514;8.294;2024-02-21T05:15:35;7.70;99.90
563;DHT22;266;49.514;8.294;2024-02-21T05:18:05;7.70;99.90
563;DHT22;266;49.514;8.294;2024-02-21T05:20:33;7.60;99.90
563;DHT22;266;49.514;8.294;2024-02-21T05:23:01;7.50;99.90
563;DHT22;266;49.514;8.294;2024-02-21T05:25:30;7.40;99.90
563;DHT22;266;49.514;8.294;2024-02-21T05:27:58;7.40;99.90
563;DHT22;266;49.514;8.294;2024-02-21T05:30:29;7.40;99.90
563;DHT22;266;49.514;8.294;2024-02-21T05:32:57;7.30;99.90
563;DHT22;266;49.514;8.294;2024-02-21T05:35:28;7.30;99.90
563;DHT22;266;49.514;8.294;2024-02-21T05:37:57;7.30;99.90
563;DHT22;266;49.514;8.294;2024-02-21T05:40:26;7.30;99.90
563;DHT22;266;49.514;8.294;2024-02-21T05:42:54;7.30;99.90
563;DHT22;266;49.514;8.294;2024-02-21T05:45:22;7.30;99.90
563;DHT22;266;49.514;8.294;2024-02-21T05:47:50;7.30;99.90
563;DHT22;266;49.514;8.294;2024-02-21T05:50:18;7.20;99.90
563;DHT22;266;49.514;8.294;2024-02-21T05:52:51;7.20;99.90
563;DHT22;266;49.514;8.294;2024-02-21T05:55:19;7.10;99.90
563;DHT22;266;49.514;8.294;2024-02-21T05:57:47;7.00;99.90
563;DHT22;266;49.514;8.294;2024-02-21T06:00:16;7.00;99.90
563;DHT22;266;49.514;8.294;2024-02-21T06:02:44;7.00;99.90
563;DHT22;266;49.514;8.294;2024-02-21T06:05:12;7.00;99.90
563;DHT22;266;49.514;8.294;2024-02-21T06:07:40;6.90;99.90
563;DHT22;266;49.514;8.294;2024-02-21T06:10:09;6.90;99.90
563;DHT22;266;49.514;8.294;2024-02-21T06:12:37;6.80;99.90
563;DHT22;266;49.514;8.294;2024-02-21T06:15:06;6.80;99.90
563;DHT22;266;49.514;8.294;2024-02-21T06:17:34;6.80;99.90
563;DHT22;266;49.514;8.294;2024-02-21T06:20:03;6.70;99.90
563;DHT22;266;49.514;8.294;2024-02-21T06:22:31;6.70;99.90
563;DHT22;266;49.514;8.294;2024-02-21T06:24:59;6.80;99.90
563;DHT22;266;49.514;8.294;2024-02-21T06:27:30;6.70;99.90
563;DHT22;266;49.514;8.294;2024-02-21T06:29:58;6.60;99.90
563;DHT22;266;49.514;8.294;2024-02-21T06:32:26;6.70;99.90
563;DHT22;266;49.514;8.294;2024-02-21T06:34:54;6.70;99.90
563;DHT22;266;49.514;8.294;2024-02-21T06:37:22;6.70;99.90
563;DHT22;266;49.514;8.294;2024-02-21T06:39:50;6.80;99.90
563;DHT22;266;49.514;8.294;2024-02-21T06:42:18;6.80;99.90
563;DHT22;266;49.514;8.294;2024-02-21T06:44:48;6.70;99.90
563;DHT22;266;49.514;8.294;2024-02-21T06:47:15;6.70;99.90
563;DHT22;266;49.514;8.294;2024-02-21T06:49:48;6.70;99.90
563;DHT22;266;49.514;8.294;2024-02-21T06:52:17;6.60;99.90
563;DHT22;266;49.514;8.294;2024-02-21T06:54:47;6.60;99.90
563;DHT22;266;49.514;8.294;2024-02-21T06:57:15;6.70;99.90
563;DHT22;266;49.514;8.294;2024-02-21T06:59:43;6.70;99.90
563;DHT22;266;49.514;8.294;2024-02-21T07:02:12;6.70;99.90
563;DHT22;266;49.514;8.294;2024-02-21T07:04:40;6.80;99.90
563;DHT22;266;49.514;8.294;2024-02-21T07:07:09;6.70;99.90
563;DHT22;266;49.514;8.294;2024-02-21T07:09:36;6.80;99.90
563;DHT22;266;49.514;8.294;2024-02-21T07:12:05;6.90;99.90
563;DHT22;266;49.514;8.294;2024-02-21T07:14:33;6.90;99.90
563;DHT22;266;49.514;8.294;2024-02-21T07:17:01;7.00;99.90
563;DHT22;266;49.514;8.294;2024-02-21T07:19:31;7.20;99.90
563;DHT22;266;49.514;8.294;2024-02-21T07:21:59;7.10;99.90
563;DHT22;266;49.514;8.294;2024-02-21T07:24:27;7.20;99.90
563;DHT22;266;49.514;8.294;2024-02-21T07:26:55;7.20;99.90
563;DHT22;266;49.514;8.294;2024-02-21T07:29:23;7.30;99.90
563;DHT22;266;49.514;8.294;2024-02-21T07:31:52;7.40;99.90
563;DHT22;266;49.514;8.294;2024-02-21T07:34:20;7.30;99.90
563;DHT22;266;49.514;8.294;2024-02-21T07:36:50;7.40;99.90
563;DHT22;266;49.514;8.294;2024-02-21T07:39:18;7.40;99.90
563;DHT22;266;49.514;8.294;2024-02-21T07:41:46;7.40;99.90
563;DHT22;266;49.514;8.294;2024-02-21T07:44:14;7.50;99.90
563;DHT22;266;49.514;8.294;2024-02-21T07:46:42;7.60;99.90
563;DHT22;266;49.514;8.294;2024-02-21T07:49:10;7.50;99.90
563;DHT22;266;49.514;8.294;2024-02-21T07:51:38;7.60;99.90
563;DHT22;266;49.514;8.294;2024-02-21T07:54:08;7.50;99.90
563;DHT22;266;49.514;8.294;2024-02-21T07:56:40;7.50;99.90
563;DHT22;266;49.514;8.294;2024-02-21T07:59:08;7.70;99.90
563;DHT22;266;49.514;8.294;2024-02-21T08:01:36;7.60;99.90
563;DHT22;266;49.514;8.294;2024-02-21T08:04:04;7.60;99.90
563;DHT22;266;49.514;8.294;2024-02-21T08:06:32;7.50;99.90
563;DHT22;266;49.514;8.294;2024-02-21T08:09:00;7.50;99.90
563;DHT22;266;49.514;8.294;2024-02-21T08:11:30;7.50;99.90
563;DHT22;266;49.514;8.294;2024-02-21T08:13:59;7.40;99.90
563;DHT22;266;49.514;8.294;2024-02-21T08:16:27;7.40;99.90
563;DHT22;266;49.514;8.294;2024-02-21T08:18:55;7.50;99.90
563;DHT22;266;49.514;8.294;2024-02-21T08:21:24;7.50;99.90
563;DHT22;266;49.514;8.294;2024-02-21T08:23:52;7.50;99.90
563;DHT22;266;49.514;8.294;2024-02-21T08:26:21;7.50;99.90
563;DHT22;266;49.514;8.294;2024-02-21T08:28:51;7.50;99.90
563;DHT22;266;49.514;8.294;2024-02-21T08:31:19;7.50;99.90
563;DHT22;266;49.514;8.294;2024-02-21T08:33:47;7.60;99.90
563;DHT22;266;49.514;8.294;2024-02-21T08:36:17;7.70;99.90
563;DHT22;266;49.514;8.294;2024-02-21T08:38:46;7.70;99.90
563;DHT22;266;49.514;8.294;2024-02-21T08:41:14;7.70;99.90
563;DHT22;266;49.514;8.294;2024-02-21T08:43:43;7.70;99.90
563;DHT22;266;49.514;8.294;2024-02-21T08:46:12;7.80;99.90
563;DHT22;266;49.514;8.294;2024-02-21T08:48:40;7.80;99.90
563;DHT22;266;49.514;8.294;2024-02-21T08:51:08;7.80;99.90
563;DHT22;266;49.514;8.294;2024-02-21T08:53:36;8.00;99.90
563;DHT22;266;49.514;8.294;2024-02-21T08:56:05;8.10;99.90
563;DHT22;266;49.514;8.294;2024-02-21T08:58:35;8.20;99.90
563;DHT22;266;49.514;8.294;2024-02-21T09:01:04;8.30;99.90
563;DHT22;266;49.514;8.294;2024-02-21T09:03:34;8.40;99.90
563;DHT22;266;49.514;8.294;2024-02-21T09:06:02;8.60;99.90
563;DHT22;266;49.514;8.294;2024-02-21T09:08:30;8.80;99.90
563;DHT22;266;49.514;8.294;2024-02-21T09:10:58;9.10;99.90
563;DHT22;266;49.514;8.294;2024-02-21T09:13:27;9.30;99.90
563;DHT22;266;49.514;8.294;2024-02-21T09:15:55;9.40;99.90
563;DHT22;266;49.514;8.294;2024-02-21T09:18:23;9.50;99.90
563;DHT22;266;49.514;8.294;2024-02-21T09:20:53;9.40;99.90
563;DHT22;266;49.514;8.294;2024-02-21T09:23:23;9.50;99.90
563;DHT22;266;49.514;8.294;2024-02-21T09:25:51;9.60;99.90
563;DHT22;266;49.514;8.294;2024-02-21T09:28:19;9.60;99.90
563;DHT22;266;49.514;8.294;2024-02-21T09:30:47;9.50;99.90
563;DHT22;266;49.514;8.294;2024-02-21T09:33:15;9.60;99.90
563;DHT22;266;49.514;8.294;2024-02-21T09:35:59;9.60;99.90
563;DHT22;266;49.514;8.294;2024-02-21T09:38:27;9.70;99.90
563;DHT22;266;49.514;8.294;2024-02-21T09:40:59;9.70;99.90
563;DHT22;266;49.514;8.294;2024-02-21T09:43:28;9.80;99.90
563;DHT22;266;49.514;8.294;2024-02-21T09:45:58;9.80;99.90
563;DHT22;266;49.514;8.294;2024-02-21T09:48:35;9.80;99.90
563;DHT22;266;49.514;8.294;2024-02-21T09:51:09;10.00;99.90
563;DHT22;266;49.514;8.294;2024-02-21T09:53:38;10.10;99.90
563;DHT22;266;49.514;8.294;2024-02-21T09:56:14;10.20;99.90
563;DHT22;266;49.514;8.294;2024-02-21T09:58:42;10.10;99.90
563;DHT22;266;49.514;8.294;2024-02-21T10:01:10;10.20;99.90
563;DHT22;266;49.514;8.294;2024-02-21T10:03:55;10.10;99.90
563;DHT22;266;49.514;8.294;2024-02-21T10:06:26;10.30;99.90
563;DHT22;266;49.514;8.294;2024-02-21T10:08:54;10.20;99.90
563;DHT22;266;49.514;8.294;2024-02-21T10:11:22;10.10;99.90
563;DHT22;266;49.514;8.294;2024-02-21T10:13:51;10.10;99.90
563;DHT22;266;49.514;8.294;2024-02-21T10:16:20;10.10;99.90
563;DHT22;266;49.514;8.294;2024-02-21T10:18:53;10.10;99.90
563;DHT22;266;49.514;8.294;2024-02-21T10:21:22;10.20;99.90
563;DHT22;266;49.514;8.294;2024-02-21T10:23:51;10.20;99.90
563;DHT22;266;49.514;8.294;2024-02-21T10:26:20;10.20;99.90
563;DHT22;266;49.514;8.294;2024-02-21T10:28:48;10.30;99.90
563;DHT22;266;49.514;8.294;2024-02-21T10:31:22;10.30;99.90
563;DHT22;266;49.514;8.294;2024-02-21T10:33:55;10.30;99.90
563;DHT22;266;49.514;8.294;2024-02-21T10:36:23;10.20;99.90
563;DHT22;266;49.514;8.294;2024-02-21T10:38:53;10.30;99.90
563;DHT22;266;49.514;8.294;2024-02-21T10:41:23;10.30;99.90
563;DHT22;266;49.514;8.294;2024-02-21T10:43:52;10.40;99.90
563;DHT22;266;49.514;8.294;2024-02-21T10:46:23;10.40;99.90
563;DHT22;266;49.514;8.294;2024-02-21T10:49:01;10.40;99.90
563;DHT22;266;49.514;8.294;2024-02-21T10:51:34;10.40;99.90
563;DHT22;266;49.514;8.294;2024-02-21T10:54:28;10.50;99.90
563;DHT22;266;49.514;8.294;2024-02-21T10:56:58;10.50;99.90
563;DHT22;266;49.514;8.294;2024-02-21T10:59:28;10.60;99.90
563;DHT22;266;49.514;8.294;2024-02-21T11:01:58;10.70;99.90
563;DHT22;266;49.514;8.294;2024-02-21T11:04:28;10.60;99.90
563;DHT22;266;49.514;8.294;2024-02-21T11:06:58;10.70;99.90
563;DHT22;266;49.514;8.294;2024-02-21T11:09:37;10.70;99.90
563;DHT22;266;49.514;8.294;2024-02-21T11:12:06;10.80;99.90
563;DHT22;266;49.514;8.294;2024-02-21T11:14:38;10.80;99.90
563;DHT22;266;49.514;8.294;2024-02-21T11:17:15;10.80;99.90
563;DHT22;266;49.514;8.294;2024-02-21T11:19:44;10.90;99.90
563;DHT22;266;49.514;8.294;2024-02-21T11:22:16;11.00;99.90
563;DHT22;266;49.514;8.294;2024-02-21T11:24:46;11.10;99.90
563;DHT22;266;49.514;8.294;2024-02-21T11:27:15;11.20;99.90
563;DHT22;266;49.514;8.294;2024-02-21T11:29:43;11.20;99.90
563;DHT22;266;49.514;8.294;2024-02-21T11:32:14;11.10;99.90
563;DHT22;266;49.514;8.294;2024-02-21T11:34:53;11.00;99.90
563;DHT22;266;49.514;8.294;2024-02-21T11:37:25;11.00;99.90
563;DHT22;266;49.514;8.294;2024-02-21T11:39:55;11.00;99.90
563;DHT22;266;49.514;8.294;2024-02-21T11:42:25;11.00;99.90
563;DHT22;266;49.514;8.294;2024-02-21T11:44:53;11.00;99.90
563;DHT22;266;49.514;8.294;2024-02-21T11:47:23;11.10;99.90
563;DHT22;266;49.514;8.294;2024-02-21T11:49:52;11.10;99.90
563;DHT22;266;49.514;8.294;2024-02-21T11:52:22;11.00;99.90
563;DHT22;266;49.514;8.294;2024-02-21T11:54:52;10.90;99.90
563;DHT22;266;49.514;8.294;2024-02-21T11:57:23;11.00;99.90
563;DHT22;266;49.514;8.294;2024-02-21T11:59:51;11.10;99.90
563;DHT22;266;49.514;8.294;2024-02-21T12:02:26;11.00;99.90
563;DHT22;266;49.514;8.294;2024-02-21T12:04:55;11.10;99.90
563;DHT22;266;49.514;8.294;2024-02-21T12:07:23;11.00;99.90
563;DHT22;266;49.514;8.294;2024-02-21T12:09:52;11.10;99.90
563;DHT22;266;49.514;8.294;2024-02-21T12:12:22;11.00;99.90
563;DHT22;266;49.514;8.294;2024-02-21T12:14:55;11.10;99.90
563;DHT22;266;49.514;8.294;2024-02-21T12:17:25;11.10;99.90
563;DHT22;266;49.514;8.294;2024-02-21T12:19:59;11.10;99.90
563;DHT22;266;49.514;8.294;2024-02-21T12:22:39;11.10;99.90
563;DHT22;266;49.514;8.294;2024-02-21T12:25:17;11.10;99.90
563;DHT22;266;49.514;8.294;2024-02-21T12:27:48;11.20;99.90
563;DHT22;266;49.514;8.294;2024-02-21T12:30:16;11.20;99.90
563;DHT22;266;49.514;8.294;2024-02-21T12:32:45;11.20;99.90
563;DHT22;266;49.514;8.294;2024-02-21T12:35:13;11.20;99.90
563;DHT22;266;49.514;8.294;2024-02-21T12:37:41;11.20;99.90
563;DHT22;266;49.514;8.294;2024-02-21T12:40:10;11.30;99.90
563;DHT22;266;49.514;8.294;2024-02-21T12:42:40;11.40;99.90
563;DHT22;266;49.514;8.294;2024-02-21T12:45:10;11.40;99.90
563;DHT22;266;49.514;8.294;2024-02-21T12:47:38;11.40;99.90
563;DHT22;266;49.514;8.294;2024-02-21T12:50:07;11.40;99.90
563;DHT22;266;49.514;8.294;2024-02-21T12:52:36;11.50;99.90
563;DHT22;266;49.514;8.294;2024-02-21T12:55:05;11.40;99.90
563;DHT22;266;49.514;8.294;2024-02-21T12:57:33;11.40;99.90
563;DHT22;266;49.514;8.294;2024-02-21T13:00:01;11.40;99.90
563;DHT22;266;49.514;8.294;2024-02-21T13:02:30;11.40;99.90
563;DHT22;266;49.514;8.294;2024-02-21T13:04:58;11.40;99.90
563;DHT22;266;49.514;8.294;2024-02-21T13:07:28;11.30;99.90
563;DHT22;266;49.514;8.294;2024-02-21T13:09:58;11.40;99.90
563;DHT22;266;49.514;8.294;2024-02-21T13:12:26;11.40;99.90
563;DHT22;266;49.514;8.294;2024-02-21T13:14:54;11.30;99.90
563;DHT22;266;49.514;8.294;2024-02-21T13:17:22;11.30;99.90
563;DHT22;266;49.514;8.294;2024-02-21T13:19:51;11.30;99.90
563;DHT22;266;49.514;8.294;2024-02-21T13:22:19;11.30;99.90
563;DHT22;266;49.514;8.294;2024-02-21T13:24:49;11.30;99.90
563;DHT22;266;49.514;8.294;2024-02-21T13:27:22;11.30;99.90
563;DHT22;266;49.514;8.294;2024-02-21T13:29:50;11.20;99.90
563;DHT22;266;49.514;8.294;2024-02-21T13:32:19;11.20;99.90
563;DHT22;266;49.514;8.294;2024-02-21T13:34:47;11.30;99.90
563;DHT22;266;49.514;8.294;2024-02-21T13:37:17;11.30;99.90
563;DHT22;266;49.514;8.294;2024-02-21T13:39:45;11.30;99.90
563;DHT22;266;49.514;8.294;2024-02-21T13:42:13;11.30;99.90
563;DHT22;266;49.514;8.294;2024-02-21T13:44:43;11.30;99.90
563;DHT22;266;49.514;8.294;2024-02-21T13:47:12;11.40;99.90
563;DHT22;266;49.514;8.294;2024-02-21T13:49:41;11.40;99.90
563;DHT22;266;49.514;8.294;2024-02-21T13:52:09;11.40;99.90
563;DHT22;266;49.514;8.294;2024-02-21T13:54:38;11.40;99.90
563;DHT22;266;49.514;8.294;2024-02-21T13:57:06;11.30;99.90
563;DHT22;266;49.514;8.294;2024-02-21T13:59:34;11.30;99.90
563;DHT22;266;49.514;8.294;2024-02-21T14:02:03;11.30;99.90
563;DHT22;266;49.514;8.294;2024-02-21T14:04:31;11.30;99.90
563;DHT22;266;49.514;8.294;2024-02-21T14:06:59;11.30;99.90
563;DHT22;266;49.514;8.294;2024-02-21T14:09:27;11.30;99.90
563;DHT22;266;49.514;8.294;2024-02-21T14:11:57;11.30;99.90
563;DHT22;266;49.514;8.294;2024-02-21T14:14:25;11.40;99.90
563;DHT22;266;49.514;8.294;2024-02-21T14:16:53;11.40;99.90
563;DHT22;266;49.514;8.294;2024-02-21T14:19:23;11.30;99.90
563;DHT22;266;49.514;8.294;2024-02-21T14:21:51;11.40;99.90
563;DHT22;266;49.514;8.294;2024-02-21T14:24:19;11.30;99.90
563;DHT22;266;49.514;8.294;2024-02-21T14:26:47;11.30;99.90
563;DHT22;266;49.514;8.294;2024-02-21T14:29:17;11.30;99.90
563;DHT22;266;49.514;8.294;2024-02-21T14:31:45;11.20;99.90
563;DHT22;266;49.514;8.294;2024-02-21T14:34:13;11.30;99.90
563;DHT22;266;49.514;8.294;2024-02-21T14:36:41;11.30;99.90
563;DHT22;266;49.514;8.294;2024-02-21T14:39:09;11.30;99.90
563;DHT22;266;49.514;8.294;2024-02-21T14:41:37;11.30;99.90
563;DHT22;266;49.514;8.294;2024-02-21T14:44:06;11.40;99.90
563;DHT22;266;49.514;8.294;2024-02-21T14:46:37;11.30;99.90
563;DHT22;266;49.514;8.294;2024-02-21T14:49:06;11.40;99.90
563;DHT22;266;49.514;8.294;2024-02-21T14:51:34;11.40;99.90
563;DHT22;266;49.514;8.294;2024-02-21T14:54:02;11.40;99.90
563;DHT22;266;49.514;8.294;2024-02-21T14:56:30;11.30;99.90
563;DHT22;266;49.514;8.294;2024-02-21T14:58:58;11.30;99.90
563;DHT22;266;49.514;8.294;2024-02-21T15:01:38;11.30;99.90
563;DHT22;266;49.514;8.294;2024-02-21T15:04:06;11.30;99.90
563;DHT22;266;49.514;8.294;2024-02-21T15:06:35;11.30;99.90
563;DHT22;266;49.514;8.294;2024-02-21T15:09:04;11.20;99.90
563;DHT22;266;49.514;8.294;2024-02-21T15:11:34;11.30;99.90
563;DHT22;266;49.514;8.294;2024-02-21T15:14:03;11.30;99.90
563;DHT22;266;49.514;8.294;2024-02-21T15:16:31;11.20;99.90
563;DHT22;266;49.514;8.294;2024-02-21T15:19:00;11.20;99.90
563;DHT22;266;49.514;8.294;2024-02-21T15:21:30;11.10;99.90
563;DHT22;266;49.514;8.294;2024-02-21T15:23:58;11.10;99.90
563;DHT22;266;49.514;8.294;2024-02-21T15:26:27;11.00;99.90
563;DHT22;266;49.514;8.294;2024-02-21T15:28:56;11.00;99.90
563;DHT22;266;49.514;8.294;2024-02-21T15:31:24;11.10;99.90
563;DHT22;266;49.514;8.294;2024-02-21T15:33:53;11.10;99.90
563;DHT22;266;49.514;8.294;2024-02-21T15:36:22;11.00;99.90
563;DHT22;266;49.514;8.294;2024-02-21T15:38:50;11.00;99.90
563;DHT22;266;49.514;8.294;2024-02-21T15:41:18;11.00;99.90
563;DHT22;266;49.514;8.294;2024-02-21T15:43:48;11.00;99.90
563;DHT22;266;49.514;8.294;2024-02-21T15:46:17;11.00;99.90
563;DHT22;266;49.514;8.294;2024-02-21T15:48:45;10.90;99.90
563;DHT22;266;49.514;8.294;2024-02-21T15:51:13;11.00;99.90
563;DHT22;266;49.514;8.294;2024-02-21T15:53:43;10.90;99.90
563;DHT22;266;49.514;8.294;2024-02-21T15:56:12;10.80;99.90
563;DHT22;266;49.514;8.294;2024-02-21T15:58:40;10.80;99.90
563;DHT22;266;49.514;8.294;2024-02-21T16:01:09;10.80;99.90
563;DHT22;266;49.514;8.294;2024-02-21T16:03:38;10.70;99.90
563;DHT22;266;49.514;8.294;2024-02-21T16:06:07;10.80;99.90
563;DHT22;266;49.514;8.294;2024-02-21T16:08:35;10.70;99.90
563;DHT22;266;49.514;8.294;2024-02-21T16:11:13;10.70;99.90
563;DHT22;266;49.514;8.294;2024-02-21T16:13:44;10.60;99.90
563;DHT22;266;49.514;8.294;2024-02-21T16:16:13;10.70;99.90
563;DHT22;266;49.514;8.294;2024-02-21T16:18:41;10.50;99.90
563;DHT22;266;49.514;8.294;2024-02-21T16:21:09;10.50;99.90
563;DHT22;266;49.514;8.294;2024-02-21T16:23:37;10.50;99.90
563;DHT22;266;49.514;8.294;2024-02-21T16:26:05;10.50;99.90
563;DHT22;266;49.514;8.294;2024-02-21T16:28:35;10.40;99.90
563;DHT22;266;49.514;8.294;2024-02-21T16:31:03;10.50;99.90
563;DHT22;266;49.514;8.294;2024-02-21T16:33:31;10.40;99.90
563;DHT22;266;49.514;8.294;2024-02-21T16:36:00;10.40;99.90
563;DHT22;266;49.514;8.294;2024-02-21T16:38:29;10.30;99.90
563;DHT22;266;49.514;8.294;2024-02-21T16:40:59;10.30;99.90
563;DHT22;266;49.514;8.294;2024-02-21T16:43:27;10.30;99.90
563;DHT22;266;49.514;8.294;2024-02-21T16:45:57;10.20;99.90
563;DHT22;266;49.514;8.294;2024-02-21T16:48:26;10.20;99.90
563;DHT22;266;49.514;8.294;2024-02-21T16:50:54;10.20;99.90
563;DHT22;266;49.514;8.294;2024-02-21T16:53:27;10.20;99.90
563;DHT22;266;49.514;8.294;2024-02-21T16:55:55;10.20;99.90